Accueil
METAR-TAF:

METAR-TAF

Aéroports :

Aéroport de Caen - Carpiquet

Caen, France

latitude: 49-11N, longitude: 000-27W, altitude: 78 m

Observation

Le bulletin a été fait il y a 10 minutes, à 08:00 UTC
Vent 10 kt de sud
Température 14°C
Humidité 88%
Pression 1008 hPa
Visibilité 10 km ou plus
Ciel couvert à une hauteur de 1200 ft

METAR: LFRK 150800Z AUTO 17010KT 9999 OVC012 14/12 Q1008 BECMG BKN025

Heure: 10:10 (08:10 UTC)

Prévision

Le bulletin a été fait il y a 3 heures et 10 minutes, à 05:00 UTC
Prévision valable du 15 à 06 UTC au 15 à 15 UTC
Vent 6 kt de sud
Visibilité 10 km ou plus
Nuages fragmentés à une hauteur de 2500 ft
Temporairement
du 15 à 06 UTC au 15 à 09 UTC
Nuages fragmentés à une hauteur de 800 ft

TAF: LFRK 150500Z 1506/1515 18006KT 9999 BKN025 TEMPO 1506/1509 BKN008

Observations et prévisions météorologiques de plus de 4000 aéroports (messages METAR et TAF).

Les stations disponibles sont représentées par des disques jaunes et rouges sur la carte.

Passer la souris dessus pour voir le nom de la station.

Cliquer dessus pour voir les observations et prévisions météorologiques.

Pour changer de carte: cliquez sur les boutons verts avec une croix noire pour zoomer, sur le bouton vert avec un tiret pour effectuer un zoom arrière, ou sur les flèches vertes pour les cartes adjacentes.


METAR-TAF: